Canton, TX (75103)

2:05 PM CDT on June 03, 2015 (GMT -0500)
Tara | | Change Station
CLOSE
Current Station
Personal Weather Station
Location: Wills Point, TX
Elevation: 541 ft
Nearby Weather Stations

Elev 541 ft 32.62 °N, 95.91 °W | Updated 5 minutes ago

Partly Cloudy
Partly Cloudy
90.0 °F
Feels Like 97 °F
N
5.3
Wind Variable Wind from South

Today
High -- | Low -- °F
--% Chance of Precip.
Yesterday
High -- | Low -- °F
Precip. -- in
6:16 AM 8:27 PM
Full, 99% visible
Pressure 29.96 in
Visibility 5.0 miles
Clouds
Heat Index 97 °F
Dew Point 72 °F
Humidity 55%
Rainfall 0.00 in
Snow Depth Not available.
UV Not available.
Pollen 6.00 out of 12
Air Quality Not available.
Flu Activity Local Activity
METAR KJDD 031855Z AUTO 16005KT 5SM HZ 29/18 A2996 RMK AO2

More Conditions Fewer Conditions

Pressure 29.96 in
Visibility 5.0 miles
Clouds
Heat Index 97 °F
Dew Point 72 °F
Humidity 55%
Rainfall 0.00 in
Snow Depth Not available.
UV Not available.
Pollen 6.00 out of 12
Air Quality Not available.
Flu Activity Local Activity
METAR KJDD 031855Z AUTO 16005KT 5SM HZ 29/18 A2996 RMK AO2

More Conditions Fewer Conditions

10-Day Weather Forecast

×

Almanac

Astronomy

Jun. 03, 2015 Rise Set
Actual Time
Civil Twilight
Nautical Twilight
Astronomical Twilight
Moon
Length of Visible Light
Length of Day
Tomorrow will be .
, % of the Moon is Illuminated

Today's Extremes

State Highs State Lows

Community

WunderPhotos

Upload Photos

1,826,270 photos uploaded!

WunderBlogs® & News

Nearby

Air Quality

  Air Quality AQ Index Pollutant
Not available.

Snow Depth

Station Depth Elevation

Earthquake Activity

City Distance Mag. Time & Date
Minimum magnitude displayed is 2.5.

Coastal Water Temperatures

Place Temperature

Stations

Nearby Weather Stations

Station Location Temp. Windchill Dew Point Humidity Wind Precip. Elev Updated Type